Time;durP1;ratioP1;P1;durP2;ratioP2;P2;SDS_P1;SDS_P2;PMS_P1;PMS_P2;Temp;Humidity;BMP_temperature;BMP_pressure;BME280_temperature;BME280_humidity;BME280_pressure;Samples;Min_cycle;Max_cycle;Signal;HPM_P1;HPM_P2
2023/06/29 03:23:40;;;;;;;0.20;0.20;;;;;;;15.75;100.00;99152.02;88935;1296;545513;-61
2023/06/29 03:25:42;;;;;;;0.50;0.20;;;;;;;15.68;100.00;99140.38;90404;1288;138417;-61
2023/06/29 03:27:44;;;;;;;1.50;0.20;;;;;;;15.73;100.00;99141.17;90529;1285;22123;-70
2023/06/29 03:29:51;;;;;;;1.00;0.20;;;;;;;15.83;100.00;99150.64;90829;1278;139027;-63
2023/06/29 03:31:53;;;;;;;1.50;0.20;;;;;;;15.87;100.00;99151.88;90885;1282;22800;-63
2023/06/29 03:33:58;;;;;;;0.30;0.30;;;;;;;15.93;100.00;99150.87;90819;1278;139463;-75
2023/06/29 03:35:59;;;;;;;;;;;;;;;15.94;100.00;99150.06;90938;1276;22411;-63
2023/06/29 03:38:07;;;;;;;0.40;0.30;;;;;;;15.84;100.00;99141.53;90700;1276;243723;-63
2023/06/29 03:40:09;;;;;;;0.10;0.10;;;;;;;15.91;100.00;99149.12;90902;1275;138201;-64
2023/06/29 03:42:11;;;;;;;0.70;0.20;;;;;;;15.88;100.00;99141.55;91022;1271;22228;-62
2023/06/29 03:44:12;;;;;;;0.70;0.40;;;;;;;15.90;100.00;99144.05;90822;1277;138448;-64
2023/06/29 03:46:14;;;;;;;0.50;0.40;;;;;;;15.95;100.00;99152.55;90990;1276;22309;-62
2023/06/29 03:48:15;;;;;;;0.20;0.10;;;;;;;15.94;100.00;99154.20;90864;1266;139933;-64
2023/06/29 03:50:17;;;;;;;0.20;0.20;;;;;;;15.94;100.00;99151.64;90974;1275;23198;-67
2023/06/29 03:52:19;;;;;;;2.40;0.30;;;;;;;15.97;100.00;99152.04;90859;1275;139135;-62
2023/06/29 03:54:20;;;;;;;0.70;0.20;;;;;;;15.93;100.00;99153.66;90987;1276;22215;-65
2023/06/29 03:56:22;;;;;;;0.40;0.40;;;;;;;15.93;100.00;99154.27;90878;1276;139940;-63
2023/06/29 03:58:24;;;;;;;4.90;0.50;;;;;;;15.92;100.00;99145.21;90924;1279;22156;-63
2023/06/29 04:00:25;;;;;;;0.80;0.50;;;;;;;15.98;100.00;99153.98;90899;1278;139209;-69
2023/06/29 04:02:27;;;;;;;3.80;0.40;;;;;;;15.98;100.00;99153.77;90854;1275;22332;-62
2023/06/29 04:04:30;;;;;;;0.60;0.40;;;;;;;15.98;100.00;99157.30;90730;1276;137745;-73
2023/06/29 04:06:31;;;;;;;0.70;0.40;;;;;;;15.96;100.00;99159.02;91038;1275;23074;-69
2023/06/29 04:08:33;;;;;;;4.00;1.10;;;;;;;15.97;100.00;99158.33;90849;1275;139099;-70
2023/06/29 04:10:35;;;;;;;0.70;0.70;;;;;;;16.00;100.00;99155.02;90987;1275;23217;-64
2023/06/29 04:12:38;;;;;;;0.60;0.60;;;;;;;16.04;100.00;99150.06;90800;1273;139438;-66
2023/06/29 04:14:40;;;;;;;2.50;0.70;;;;;;;16.11;100.00;99149.21;91299;1270;23020;-66
2023/06/29 04:16:42;;;;;;;0.60;0.60;;;;;;;16.19;100.00;99148.60;91203;1269;137760;-64
2023/06/29 04:18:44;;;;;;;1.30;1.00;;;;;;;16.24;100.00;99144.67;91227;1270;22346;-69
2023/06/29 04:20:46;;;;;;;0.70;0.70;;;;;;;16.28;100.00;99147.02;91056;1272;138978;-63
2023/06/29 04:22:48;;;;;;;0.70;0.60;;;;;;;16.32;100.00;99148.52;91260;1274;22325;-66
2023/06/29 04:24:50;;;;;;;0.80;0.80;;;;;;;16.36;100.00;99148.33;91175;1272;139334;-63
2023/06/29 04:26:52;;;;;;;1.00;0.60;;;;;;;16.34;100.00;99147.09;91261;1270;22371;-67
2023/06/29 04:29:01;;;;;;;2.00;1.10;;;;;;;16.33;100.00;99151.48;91190;1270;139013;-62
2023/06/29 04:31:02;;;;;;;0.80;0.70;;;;;;;16.34;100.00;99152.24;91262;1269;23098;-69
2023/06/29 04:33:09;;;;;;;0.90;0.70;;;;;;;16.40;100.00;99152.30;91052;1269;138787;-64
2023/06/29 04:35:11;;;;;;;0.90;0.80;;;;;;;16.49;100.00;99152.86;91224;1263;22368;-62
2023/06/29 04:37:14;;;;;;;0.80;0.80;;;;;;;16.55;100.00;99151.19;91144;1270;137860;-76
2023/06/29 04:39:16;;;;;;;1.40;0.80;;;;;;;16.60;100.00;99152.41;91243;1270;22665;-63
2023/06/29 04:41:17;;;;;;;3.40;1.30;;;;;;;16.64;100.00;99156.36;91143;1271;138236;-63
2023/06/29 04:43:21;;;;;;;0.80;0.80;;;;;;;16.70;100.00;99151.84;91093;1272;22340;-69
2023/06/29 04:45:24;;;;;;;5.90;1.30;;;;;;;16.77;100.00;99152.00;91167;1270;139581;-65
2023/06/29 04:47:32;;;;;;;0.60;0.60;;;;;;;16.83;100.00;99154.77;91300;1270;22327;-63
2023/06/29 04:49:37;;;;;;;1.40;1.20;;;;;;;16.85;100.00;99158.27;91133;1270;138253;-63
2023/06/29 04:51:39;;;;;;;1.00;1.00;;;;;;;16.84;100.00;99158.31;91240;1270;22386;-62
2023/06/29 04:53:41;;;;;;;1.40;1.30;;;;;;;16.84;100.00;99157.67;91002;1271;137696;-64
2023/06/29 04:55:43;;;;;;;1.20;1.10;;;;;;;16.84;100.00;99157.41;91142;1271;22318;-62
2023/06/29 04:57:45;;;;;;;1.80;1.10;;;;;;;16.86;100.00;99159.95;91164;1269;138360;-63
2023/06/29 04:59:46;;;;;;;1.40;1.20;;;;;;;16.89;100.00;99158.30;91276;1270;22748;-63
2023/06/29 05:01:48;;;;;;;1.70;1.60;;;;;;;16.92;100.00;99156.60;91188;1272;137710;-68
2023/06/29 05:03:50;;;;;;;1.60;1.50;;;;;;;16.94;100.00;99157.11;91310;1270;22162;-66
2023/06/29 05:05:53;;;;;;;1.10;1.10;;;;;;;16.97;100.00;99158.73;91137;1272;137734;-62
2023/06/29 05:07:55;;;;;;;1.20;1.10;;;;;;;17.00;100.00;99155.79;91224;1275;22341;-73
2023/06/29 05:09:58;;;;;;;1.50;1.40;;;;;;;17.02;100.00;99153.77;91137;1270;138308;-70
2023/06/29 05:11:59;;;;;;;1.20;1.20;;;;;;;17.04;100.00;99153.19;91215;1271;22244;-67
2023/06/29 05:14:01;;;;;;;2.40;1.50;;;;;;;17.02;100.00;99153.06;91122;1266;139104;-64
2023/06/29 05:16:04;;;;;;;1.40;1.30;;;;;;;17.02;100.00;99153.92;91105;1272;140372;-65
2023/06/29 05:18:05;;;;;;;1.50;1.30;;;;;;;16.92;100.00;99133.66;91305;1256;22259;-64
2023/06/29 05:20:08;;;;;;;1.60;1.30;;;;;;;17.05;100.00;99157.07;91121;1272;138368;-66
2023/06/29 05:22:11;;;;;;;1.50;1.40;;;;;;;17.06;100.00;99157.06;91210;1271;23036;-65
2023/06/29 05:24:12;;;;;;;1.70;1.60;;;;;;;17.03;100.00;99155.02;91144;1272;138247;-63
2023/06/29 05:26:15;;;;;;;1.70;1.60;;;;;;;17.01;100.00;99153.85;91124;1272;22383;-64
2023/06/29 05:28:17;;;;;;;3.50;1.70;;;;;;;17.01;100.00;99155.52;91133;1272;139641;-68
2023/06/29 05:30:19;;;;;;;6.30;5.60;;;;;;;17.07;100.00;99155.52;91233;1260;22321;-65
2023/06/29 05:32:20;;;;;;;9.50;8.60;;;;;;;17.18;100.00;99154.45;90997;1272;138290;-74
2023/06/29 05:34:22;;;;;;;4.40;4.10;;;;;;;17.27;100.00;99157.25;91238;1273;23168;-65
2023/06/29 05:36:24;;;;;;;5.00;4.70;;;;;;;17.34;100.00;99160.52;91088;1270;139037;-62
2023/06/29 05:38:29;;;;;;;7.90;7.10;;;;;;;17.36;100.00;99157.73;91269;1270;22925;-63
2023/06/29 05:40:32;;;;;;;3.00;2.80;;;;;;;17.36;100.00;99157.04;91104;1272;139213;-65
2023/06/29 05:42:34;;;;;;;3.20;3.10;;;;;;;17.37;100.00;99157.48;91233;1276;22268;-62
2023/06/29 05:44:35;;;;;;;5.00;4.60;;;;;;;17.30;100.00;99146.92;91138;1270;137857;-63
2023/06/29 05:46:37;;;;;;;10.40;9.40;;;;;;;17.37;100.00;99157.03;91249;1270;22375;-69
2023/06/29 05:48:39;;;;;;;3.80;3.50;;;;;;;17.32;100.00;99145.10;91093;1270;139657;-73
2023/06/29 05:50:41;;;;;;;5.10;4.80;;;;;;;17.45;100.00;99164.02;91114;1272;22207;-65
2023/06/29 05:52:43;;;;;;;7.40;5.10;;;;;;;17.51;100.00;99161.30;91141;1270;137867;-63
2023/06/29 05:54:44;;;;;;;10.20;9.30;;;;;;;17.57;100.00;99160.34;91283;1270;22393;-64
2023/06/29 05:56:47;;;;;;;7.00;5.50;;;;;;;17.67;100.00;99158.98;91132;1272;138645;-64
2023/06/29 05:58:49;;;;;;;11.60;10.50;;;;;;;17.72;100.00;99156.16;91132;1272;22387;-63
2023/06/29 06:00:51;;;;;;;19.20;17.50;;;;;;;17.77;100.00;99151.91;90909;1273;138593;-65
2023/06/29 06:02:53;;;;;;;9.60;8.70;;;;;;;17.88;100.00;99154.30;91252;1270;23024;-64
2023/06/29 06:04:55;;;;;;;12.00;10.70;;;;;;;18.03;100.00;99152.17;91150;1270;138611;-63
2023/06/29 06:06:58;;;;;;;8.00;7.30;;;;;;;18.08;100.00;99154.55;91119;1273;22217;-64
2023/06/29 06:09:01;;;;;;;8.00;7.20;;;;;;;18.09;100.00;99155.10;91035;1260;137807;-65
2023/06/29 06:11:03;;;;;;;5.30;4.90;;;;;;;18.13;100.00;99154.77;91157;1272;23099;-66
2023/06/29 06:13:05;;;;;;;3.00;2.80;;;;;;;18.16;100.00;99158.45;91176;1270;138250;-63
2023/06/29 06:15:11;;;;;;;3.00;2.90;;;;;;;18.16;100.00;99158.89;91126;1271;22341;-67
2023/06/29 06:17:12;;;;;;;3.60;3.30;;;;;;;18.14;100.00;99158.77;91024;1272;137938;-65
2023/06/29 06:19:14;;;;;;;4.90;4.50;;;;;;;18.09;100.00;99160.80;91224;1270;22438;-67
2023/06/29 06:21:16;;;;;;;5.70;5.10;;;;;;;18.07;100.00;99164.05;91137;1270;139403;-64
2023/06/29 06:23:18;;;;;;;3.70;3.40;;;;;;;18.10;100.00;99161.67;91216;1270;22321;-63
2023/06/29 06:25:20;;;;;;;4.00;3.80;;;;;;;18.10;100.00;99159.63;91120;1270;138356;-73
2023/06/29 06:27:23;;;;;;;5.40;4.90;;;;;;;18.13;100.00;99160.17;91248;1270;22203;-67
2023/06/29 06:29:25;;;;;;;3.50;3.30;;;;;;;18.16;100.00;99156.23;91139;1270;137914;-64
2023/06/29 06:31:26;;;;;;;3.40;3.20;;;;;;;18.22;100.00;99155.71;91199;1270;22518;-67
2023/06/29 06:33:34;;;;;;;3.70;3.50;;;;;;;18.34;100.00;99152.45;91007;1272;138147;-66
2023/06/29 06:35:37;;;;;;;4.00;3.70;;;;;;;18.48;100.00;99150.13;91253;1270;22407;-64
2023/06/29 06:37:39;;;;;;;2.80;2.60;;;;;;;18.62;100.00;99146.08;91026;1272;138419;-69
2023/06/29 06:39:40;;;;;;;2.90;2.40;;;;;;;18.75;100.00;99145.95;91133;1270;22254;-65
2023/06/29 06:41:42;;;;;;;2.40;2.30;;;;;;;18.82;100.00;99148.42;91121;1267;138118;-65
2023/06/29 06:43:45;;;;;;;2.20;2.10;;;;;;;18.87;100.00;99151.55;91142;1273;22333;-64
2023/06/29 06:45:47;;;;;;;2.40;2.20;;;;;;;18.92;100.00;99153.43;91130;1270;138923;-74
2023/06/29 06:47:49;;;;;;;2.30;1.90;;;;;;;18.91;100.00;99157.86;91270;1270;22339;-65
2023/06/29 06:49:50;;;;;;;3.70;2.60;;;;;;;18.80;100.00;99155.00;91116;1270;137784;-66
2023/06/29 06:51:52;;;;;;;1.60;1.40;;;;;;;18.68;100.00;99157.95;91125;1273;23157;-67
2023/06/29 06:53:55;;;;;;;1.80;1.20;;;;;;;18.59;100.00;99159.63;91081;1270;137978;-68
2023/06/29 06:55:56;;;;;;;1.40;1.30;;;;;;;18.49;100.00;99157.52;91258;1270;22141;-64
2023/06/29 06:57:58;;;;;;;1.20;1.20;;;;;;;18.50;100.00;99156.60;91117;1270;139085;-66
2023/06/29 07:00:00;;;;;;;1.40;1.10;;;;;;;18.50;100.00;99157.48;91282;1270;22974;-64
2023/06/29 07:02:03;;;;;;;3.60;1.70;;;;;;;18.49;100.00;99158.92;91126;1268;137907;-66
2023/06/29 07:04:04;;;;;;;2.50;2.40;;;;;;;18.51;100.00;99160.27;91139;1270;139446;-71
2023/06/29 07:06:06;;;;;;;2.10;2.00;;;;;;;18.51;100.00;99160.23;91244;1270;22294;-66
2023/06/29 07:08:08;;;;;;;1.70;1.70;;;;;;;18.56;100.00;99159.25;91123;1270;161950;-65
2023/06/29 07:10:09;;;;;;;1.80;1.60;;;;;;;18.58;100.00;99161.80;91242;1270;23041;-63
2023/06/29 07:12:11;;;;;;;2.50;2.10;;;;;;;18.57;100.00;99157.16;91042;1260;139672;-70
2023/06/29 07:14:13;;;;;;;1.80;1.70;;;;;;;18.56;100.00;99160.98;91252;1270;22327;-69
2023/06/29 07:16:14;;;;;;;2.70;1.70;;;;;;;18.54;100.00;99158.92;91126;1270;139409;-63
2023/06/29 07:18:16;;;;;;;2.60;1.70;;;;;;;18.55;100.00;99158.02;91205;1270;22323;-67
2023/06/29 07:20:17;;;;;;;2.60;2.50;;;;;;;18.61;100.00;99155.25;91128;1270;138278;-69
2023/06/29 07:22:22;;;;;;;1.80;1.70;;;;;;;18.75;100.00;99155.05;91232;1270;22098;-71
2023/06/29 07:24:26;;;;;;;1.70;1.30;;;;;;;18.90;100.00;99156.89;91041;1273;138413;-66
2023/06/29 07:26:28;;;;;;;1.60;1.40;;;;;;;19.00;100.00;99159.95;91200;1270;22112;-66
2023/06/29 07:28:30;;;;;;;2.10;1.30;;;;;;;19.06;100.00;99157.45;91110;1270;138432;-64
2023/06/29 07:30:31;;;;;;;2.70;1.60;;;;;;;19.03;100.00;99156.81;91203;1270;22360;-63
2023/06/29 07:32:34;;;;;;;1.70;1.60;;;;;;;18.94;100.00;99162.72;91122;1270;137926;-66
2023/06/29 07:34:35;;;;;;;1.80;1.40;;;;;;;18.88;100.00;99160.13;91222;1270;22135;-65
2023/06/29 07:36:37;;;;;;;2.10;1.30;;;;;;;18.84;100.00;99162.50;91135;1270;137948;-66
2023/06/29 07:38:39;;;;;;;1.00;1.00;;;;;;;18.83;100.00;99162.39;91248;1271;22344;-72
2023/06/29 07:40:40;;;;;;;1.80;1.70;;;;;;;18.82;100.00;99165.64;90960;1272;138174;-65
2023/06/29 07:42:43;;;;;;;3.00;1.60;;;;;;;18.85;100.00;99162.56;91250;1270;23058;-68
2023/06/29 07:44:44;;;;;;;2.80;1.60;;;;;;;18.93;100.00;99162.23;91059;1269;138251;-72
2023/06/29 07:46:46;;;;;;;1.40;1.30;;;;;;;19.02;100.00;99160.70;91147;1272;22368;-67
2023/06/29 07:50:20;;;;;;;2.00;2.00;;;;;;;18.93;100.00;99169.58;85164;1314;565264;-65
2023/06/29 07:52:22;;;;;;;1.50;1.40;;;;;;;18.89;100.00;99173.20;87124;1286;138157;-68
2023/06/29 07:54:24;;;;;;;1.20;1.20;;;;;;;18.83;100.00;99177.08;87151;1290;22547;-66
2023/06/29 07:56:27;;;;;;;1.30;1.20;;;;;;;18.75;100.00;99175.34;87131;1286;138511;-74
2023/06/29 07:58:49;;;;;;;1.20;1.20;;;;;;;18.63;100.00;99171.56;87206;1286;23508;-64
2023/06/29 08:00:54;;;;;;;;;;;;;;;18.59;100.00;99162.60;87192;1287;137510;-64
2023/06/29 08:02:57;;;;;;;4.50;1.00;;;;;;;18.58;100.00;99153.36;87298;1286;24343;-66
2023/06/29 08:04:59;;;;;;;1.40;1.30;;;;;;;18.75;100.00;99172.20;87095;1286;277931;-64
2023/06/29 08:07:04;;;;;;;;;;;;;;;18.80;100.00;99169.52;87432;1289;22574;-65
2023/06/29 08:09:11;;;;;;;1.20;1.00;;;;;;;18.86;100.00;99168.02;87371;1285;125359;-68
2023/06/29 08:11:16;;;;;;;1.40;1.20;;;;;;;18.93;100.00;99170.06;87281;1272;24294;-65
2023/06/29 08:13:18;;;;;;;0.90;0.90;;;;;;;18.98;100.00;99174.96;87325;1284;137887;-64
2023/06/29 08:15:19;;;;;;;5.60;1.00;;;;;;;19.07;100.00;99174.59;87344;1284;22532;-64
2023/06/29 08:17:21;;;;;;;0.90;0.90;;;;;;;19.16;100.00;99176.73;87599;1277;140111;-64
2023/06/29 08:19:23;;;;;;;0.70;0.70;;;;;;;19.27;100.00;99176.91;87766;1281;22543;-64
2023/06/29 08:21:25;;;;;;;0.60;0.60;;;;;;;19.38;100.00;99175.75;87552;1276;137887;-65
2023/06/29 08:23:27;;;;;;;2.00;1.40;;;;;;;19.47;100.00;99177.34;87703;1276;22548;-64
2023/06/29 08:25:28;;;;;;;0.90;0.90;;;;;;;19.55;100.00;99182.94;87623;1277;138074;-73
2023/06/29 08:27:30;;;;;;;0.80;0.80;;;;;;;19.67;100.00;99183.87;87670;1275;22630;-70
2023/06/29 08:29:32;;;;;;;1.60;1.00;;;;;;;19.77;100.00;99185.53;87649;1277;138524;-64
2023/06/29 08:31:33;;;;;;;1.70;0.50;;;;;;;19.80;100.00;99184.59;90878;1276;22341;-64
2023/06/29 08:33:35;;;;;;;1.50;1.40;;;;;;;19.82;100.00;99184.30;90676;1280;138915;-66
2023/06/29 08:35:37;;;;;;;1.40;0.90;;;;;;;19.79;100.00;99187.73;90765;1278;22434;-73
2023/06/29 08:37:39;;;;;;;1.30;1.20;;;;;;;19.68;100.00;99186.46;90744;1276;137687;-66
2023/06/29 08:39:41;;;;;;;2.10;0.80;;;;;;;19.59;100.00;99185.50;90841;1276;22338;-67
2023/06/29 08:41:43;;;;;;;1.50;0.60;;;;;;;19.57;100.00;99182.17;90768;1276;137521;-65
2023/06/29 08:43:45;;;;;;;0.90;0.90;;;;;;;19.60;100.00;99181.77;90855;1276;22577;-64
2023/06/29 08:45:47;;;;;;;0.60;0.60;;;;;;;19.71;100.00;99180.25;90698;1278;139206;-67
2023/06/29 08:47:53;;;;;;;0.80;0.80;;;;;;;19.73;100.00;99183.17;90836;1278;22356;-64
2023/06/29 08:49:57;;;;;;;2.10;1.00;;;;;;;19.76;100.00;99179.74;90752;1276;137533;-66
2023/06/29 08:51:59;;;;;;;0.70;0.60;;;;;;;19.81;100.00;99177.79;90853;1276;22921;-65
2023/06/29 08:54:02;;;;;;;2.00;1.10;;;;;;;19.81;100.00;99175.51;90688;1276;139704;-64
2023/06/29 08:56:04;;;;;;;3.60;1.20;;;;;;;19.74;100.00;99173.75;90712;1278;138233;-64
2023/06/29 08:58:06;;;;;;;1.50;1.00;;;;;;;19.67;100.00;99168.08;90807;1276;22367;-64
2023/06/29 09:00:09;;;;;;;2.50;1.80;;;;;;;19.66;100.00;99168.58;90716;1276;139147;-67
2023/06/29 09:02:11;;;;;;;1.00;1.00;;;;;;;19.67;100.00;99172.84;90724;1279;22211;-66
2023/06/29 09:04:13;;;;;;;2.10;1.40;;;;;;;19.60;100.00;99179.94;90720;1276;139376;-66
2023/06/29 09:06:15;;;;;;;2.30;2.10;;;;;;;19.46;100.00;99184.96;90889;1276;22332;-64
2023/06/29 09:08:19;;;;;;;2.20;2.00;;;;;;;19.31;100.00;99183.60;90744;1276;140149;-66
2023/06/29 09:10:22;;;;;;;2.00;1.40;;;;;;;19.15;100.00;99183.27;90822;1276;22381;-64
2023/06/29 09:12:23;;;;;;;1.30;1.20;;;;;;;18.96;100.00;99178.38;90717;1276;138119;-65
2023/06/29 09:14:25;;;;;;;1.40;1.10;;;;;;;18.82;100.00;99183.08;90814;1260;22216;-65
2023/06/29 09:16:28;;;;;;;2.20;1.40;;;;;;;18.71;100.00;99182.23;90747;1276;139250;-70
2023/06/29 09:18:32;;;;;;;1.60;1.50;;;;;;;18.65;100.00;99178.79;90856;1277;22331;-68
2023/06/29 09:20:35;;;;;;;2.20;1.40;;;;;;;18.65;100.00;99177.11;90693;1278;137864;-66
2023/06/29 09:22:39;;;;;;;1.50;1.20;;;;;;;18.73;100.00;99177.76;90869;1277;22444;-63
2023/06/29 09:24:41;;;;;;;2.90;1.40;;;;;;;18.79;100.00;99174.86;90717;1268;137643;-65
2023/06/29 09:27:02;;;;;;;5.20;2.50;;;;;;;18.86;100.00;99172.33;90879;1265;22310;-66
2023/06/29 09:29:04;;;;;;;2.40;2.20;;;;;;;18.93;100.00;99172.00;90765;1276;137920;-63
2023/06/29 09:31:08;;;;;;;1.50;1.40;;;;;;;19.00;100.00;99167.09;90789;1278;22332;-64
2023/06/29 09:33:14;;;;;;;1.80;1.60;;;;;;;19.06;100.00;99163.02;90757;1276;138528;-63
2023/06/29 09:35:20;;;;;;;2.50;2.40;;;;;;;19.14;100.00;99166.73;90818;1278;22316;-66
2023/06/29 09:37:22;;;;;;;1.30;1.20;;;;;;;19.20;100.00;99176.94;90756;1276;139294;-63
2023/06/29 09:39:25;;;;;;;0.80;0.50;;;;;;;19.19;100.00;99182.06;90876;1276;22233;-65
2023/06/29 09:41:27;;;;;;;1.20;1.00;;;;;;;19.10;100.00;99180.30;90768;1276;137725;-68
2023/06/29 09:43:29;;;;;;;1.50;1.40;;;;;;;18.94;100.00;99178.66;90843;1276;22426;-64
2023/06/29 09:45:31;;;;;;;3.30;1.40;;;;;;;18.72;100.00;99178.58;90752;1276;139276;-64
2023/06/29 09:47:33;;;;;;;3.10;2.00;;;;;;;18.51;100.00;99180.45;90821;1277;22324;-63
2023/06/29 09:49:50;;;;;;;;;;;;;;;18.30;100.00;99177.10;90677;1278;139830;-70
2023/06/29 09:52:03;;;;;;;2.30;1.30;;;;;;;18.15;100.00;99173.39;90852;1267;22258;-62
2023/06/29 09:54:05;;;;;;;1.70;1.60;;;;;;;18.09;100.00;99175.16;90869;1276;23088;-64
2023/06/29 09:56:07;;;;;;;2.50;2.10;;;;;;;18.14;100.00;99174.74;90741;1276;138298;-68
2023/06/29 09:58:10;;;;;;;2.00;1.90;;;;;;;18.23;100.00;99176.80;90882;1276;24734;-65
2023/06/29 10:00:13;;;;;;;2.50;2.10;;;;;;;18.33;100.00;99176.06;90747;1275;140478;-64
2023/06/29 10:02:17;;;;;;;2.20;2.10;;;;;;;18.43;100.00;99172.19;90797;1272;22323;-65
2023/06/29 10:04:19;;;;;;;1.70;1.60;;;;;;;18.55;100.00;99171.13;90752;1276;138043;-64
2023/06/29 10:06:33;;;;;;;2.70;2.00;;;;;;;18.65;100.00;99167.40;90861;1275;22333;-65
2023/06/29 10:08:38;;;;;;;2.80;1.60;;;;;;;18.78;100.00;99166.48;90777;1276;137765;-67
2023/06/29 10:10:40;;;;;;;2.00;1.90;;;;;;;18.88;100.00;99161.42;90869;1276;22067;-67
2023/06/29 10:12:42;;;;;;;2.30;2.10;;;;;;;18.98;100.00;99150.13;90737;1276;137771;-66
2023/06/29 10:14:44;;;;;;;1.50;1.40;;;;;;;19.12;100.00;99149.98;90881;1276;22326;-68
2023/06/29 10:16:50;;;;;;;1.30;1.20;;;;;;;19.27;100.00;99151.20;90777;1276;137864;-66
2023/06/29 10:19:01;;;;;;;1.50;1.40;;;;;;;19.36;100.00;99149.77;90846;1273;22403;-64
2023/06/29 10:21:04;;;;;;;1.50;1.20;;;;;;;19.41;100.00;99151.52;90761;1277;138818;-65
2023/06/29 10:23:07;;;;;;;1.00;1.00;;;;;;;19.47;100.00;99151.34;90874;1276;22348;-65
2023/06/29 10:25:14;;;;;;;0.80;0.80;;;;;;;19.52;100.00;99155.16;90751;1276;138379;-65
2023/06/29 10:27:18;;;;;;;1.70;1.60;;;;;;;19.60;100.00;99159.66;90865;1275;22437;-61
2023/06/29 10:29:20;;;;;;;1.80;0.90;;;;;;;19.74;100.00;99153.73;90768;1275;137656;-63
2023/06/29 10:31:32;;;;;;;3.00;1.10;;;;;;;19.92;100.00;99151.12;90896;1277;23319;-65
2023/06/29 10:33:50;;;;;;;2.10;1.10;;;;;;;20.08;100.00;99151.30;90775;1276;137766;-64
2023/06/29 10:36:01;;;;;;;1.50;1.00;;;;;;;20.24;100.00;99148.01;90873;1276;23158;-65
2023/06/29 10:38:12;;;;;;;2.80;0.70;;;;;;;20.33;100.00;99148.05;90874;1275;22366;-68
2023/06/29 10:40:18;;;;;;;1.30;1.30;;;;;;;20.40;100.00;99144.33;90801;1276;138080;-67
2023/06/29 10:42:22;;;;;;;1.20;1.20;;;;;;;20.40;100.00;99141.92;90858;1275;22150;-66
2023/06/29 10:44:34;;;;;;;1.20;1.20;;;;;;;20.41;100.00;99139.64;90753;1275;138171;-65
2023/06/29 10:46:49;;;;;;;0.80;0.80;;;;;;;20.41;100.00;99137.64;90901;1275;22334;-71
2023/06/29 10:48:59;;;;;;;;;;;;;;;20.44;100.00;99137.69;90747;1277;137910;-66
2023/06/29 10:51:00;;;;;;;2.00;1.90;;;;;;;20.51;100.00;99136.60;90907;1275;22421;-64
2023/06/29 10:53:05;;;;;;;2.50;1.20;;;;;;;20.53;100.00;99135.27;90796;1276;137780;-66
2023/06/29 10:55:17;;;;;;;0.90;0.90;;;;;;;20.58;100.00;99137.30;90887;1269;22203;-66
2023/06/29 10:57:30;;;;;;;0.70;0.70;;;;;;;20.64;100.00;99137.38;90751;1276;139390;-63
2023/06/29 10:59:33;;;;;;;1.50;0.90;;;;;;;20.69;100.00;99131.66;90867;1276;22207;-62
2023/06/29 11:01:35;;;;;;;0.70;0.50;;;;;;;20.72;100.00;99130.27;90754;1276;138454;-65
2023/06/29 11:03:37;;;;;;;1.80;1.70;;;;;;;20.78;100.00;99125.13;90887;1276;22455;-66
2023/06/29 11:05:39;;;;;;;0.50;0.50;;;;;;;20.86;100.00;99127.92;90775;1276;138022;-64
2023/06/29 11:07:41;;;;;;;0.70;0.40;;;;;;;20.98;98.96;99124.77;90817;1278;22336;-67
2023/06/29 11:09:43;;;;;;;2.00;0.50;;;;;;;21.05;99.32;99126.00;90785;1275;137748;-68
2023/06/29 11:11:47;;;;;;;2.80;0.50;;;;;;;21.14;99.44;99128.50;90865;1276;22416;-66
2023/06/29 11:13:49;;;;;;;1.00;0.70;;;;;;;21.26;98.52;99130.54;90763;1276;137343;-63
2023/06/29 11:15:53;;;;;;;0.50;0.50;;;;;;;21.37;97.70;99124.02;90881;1276;22340;-67
2023/06/29 11:17:55;;;;;;;1.50;0.60;;;;;;;21.42;97.59;99123.46;90917;1272;138218;-64
2023/06/29 11:19:57;;;;;;;1.00;0.50;;;;;;;21.41;96.12;99127.16;91005;1273;22338;-63
2023/06/29 11:21:59;;;;;;;1.40;0.70;;;;;;;21.47;96.97;99127.54;90917;1273;137814;-66
2023/06/29 11:24:01;;;;;;;1.00;0.60;;;;;;;21.54;96.04;99117.59;90944;1272;22958;-63
2023/06/29 11:26:03;;;;;;;3.60;0.40;;;;;;;21.62;95.73;99121.23;91045;1272;22324;-67
2023/06/29 11:28:05;;;;;;;0.40;0.30;;;;;;;21.69;93.61;99122.38;90917;1273;139213;-65
2023/06/29 11:30:09;;;;;;;0.50;0.40;;;;;;;21.74;92.29;99119.73;91028;1272;22263;-65
2023/06/29 11:32:15;;;;;;;0.50;0.40;;;;;;;21.76;91.53;99120.84;90872;1273;137804;-64
2023/06/29 11:34:17;;;;;;;0.80;0.40;;;;;;;21.72;89.49;99121.86;90979;1272;22438;-67
2023/06/29 11:36:29;;;;;;;1.20;0.40;;;;;;;21.66;90.15;99124.01;90880;1272;137398;-64
2023/06/29 11:38:30;;;;;;;1.40;0.70;;;;;;;21.55;92.05;99130.54;91008;1272;22416;-64
2023/06/29 11:40:33;;;;;;;3.50;0.70;;;;;;;21.43;95.06;99143.58;90918;1272;138417;-65
2023/06/29 11:42:36;;;;;;;2.10;0.70;;;;;;;21.28;97.63;99149.52;91043;1272;23076;-64
2023/06/29 11:44:38;;;;;;;2.30;0.60;;;;;;;21.00;99.37;99156.00;90943;1273;140865;-65
2023/06/29 11:46:39;;;;;;;13.00;0.70;;;;;;;20.68;100.00;99159.92;91015;1272;22206;-71
2023/06/29 11:48:54;;;;;;;4.10;0.40;;;;;;;20.44;100.00;99157.21;90893;1260;139931;-68
2023/06/29 11:50:59;;;;;;;0.90;0.90;;;;;;;20.24;100.00;99151.67;90907;1264;22502;-66
2023/06/29 11:53:01;;;;;;;2.60;0.80;;;;;;;20.05;100.00;99150.35;90885;1272;138629;-63
2023/06/29 11:55:06;;;;;;;1.30;1.20;;;;;;;19.90;100.00;99150.85;91026;1272;23629;-65
2023/06/29 11:57:07;;;;;;;0.90;0.90;;;;;;;19.78;100.00;99150.42;90911;1272;139520;-64
2023/06/29 11:59:12;;;;;;;2.60;0.90;;;;;;;19.68;100.00;99150.34;91026;1273;23022;-64
2023/06/29 12:01:14;;;;;;;;;;;;;;;19.65;100.00;99148.30;90849;1273;139008;-64
2023/06/29 12:03:18;;;;;;;1.60;1.00;;;;;;;19.65;100.00;99150.30;90929;1272;23206;-73
2023/06/29 12:05:25;;;;;;;1.80;1.10;;;;;;;19.66;100.00;99145.33;90919;1272;139399;-66
2023/06/29 12:07:53;;;;;;;1.60;0.80;;;;;;;19.72;100.00;99145.20;90967;1273;22204;-66
2023/06/29 12:09:55;;;;;;;1.80;0.60;;;;;;;19.82;100.00;99145.01;90888;1272;138870;-67
2023/06/29 12:12:02;;;;;;;1.30;1.10;;;;;;;19.93;100.00;99143.38;91031;1272;22207;-69
2023/06/29 12:14:05;;;;;;;0.70;0.50;;;;;;;20.03;100.00;99145.37;91009;1272;22371;-67
2023/06/29 12:16:09;;;;;;;1.10;1.00;;;;;;;20.15;100.00;99146.59;90904;1272;138343;-67
2023/06/29 12:18:15;;;;;;;3.10;1.20;;;;;;;20.25;100.00;99149.23;90981;1267;22435;-65
2023/06/29 12:20:21;;;;;;;1.20;1.00;;;;;;;20.35;100.00;99148.46;90869;1272;138518;-67
2023/06/29 12:22:24;;;;;;;1.80;0.90;;;;;;;20.38;100.00;99152.88;91032;1273;22353;-63
2023/06/29 12:24:25;;;;;;;1.90;1.10;;;;;;;20.27;100.00;99142.84;90914;1272;139453;-66
2023/06/29 12:26:27;;;;;;;2.00;1.90;;;;;;;20.26;100.00;99156.80;91026;1261;22990;-72
2023/06/29 12:28:32;;;;;;;1.70;1.50;;;;;;;20.16;100.00;99160.56;90847;1273;139994;-67
2023/06/29 12:30:35;;;;;;;1.40;0.80;;;;;;;19.99;100.00;99154.17;90998;1272;22343;-73
2023/06/29 12:32:36;;;;;;;0.90;0.70;;;;;;;19.78;100.00;99150.31;90898;1272;140288;-63
2023/06/29 12:34:38;;;;;;;1.20;1.10;;;;;;;19.55;100.00;99151.85;91039;1273;22315;-63
2023/06/29 12:36:39;;;;;;;0.90;0.50;;;;;;;19.33;100.00;99150.68;90914;1272;139190;-66
2023/06/29 12:38:41;;;;;;;4.10;0.80;;;;;;;19.19;100.00;99152.24;91045;1273;22224;-63
2023/06/29 12:40:43;;;;;;;2.20;0.50;;;;;;;19.10;100.00;99153.40;90900;1272;139556;-65
2023/06/29 12:42:45;;;;;;;1.60;0.60;;;;;;;19.02;100.00;99154.11;91070;1265;22441;-64
2023/06/29 12:44:47;;;;;;;3.00;0.60;;;;;;;18.98;100.00;99154.98;90920;1272;139383;-67
2023/06/29 12:46:49;;;;;;;0.70;0.70;;;;;;;18.96;100.00;99153.86;91025;1273;22243;-70
2023/06/29 12:48:50;;;;;;;1.60;1.50;;;;;;;18.95;100.00;99150.61;90840;1269;138970;-66
2023/06/29 12:50:59;;;;;;;4.30;1.30;;;;;;;18.94;100.00;99150.40;91016;1259;22349;-67
2023/06/29 12:53:01;;;;;;;1.40;1.10;;;;;;;18.94;100.00;99151.27;90937;1272;138115;-64
2023/06/29 12:55:02;;;;;;;1.70;1.20;;;;;;;18.98;100.00;99148.71;90994;1272;22327;-66